sensor_id;sensor_type;location;lat;lon;timestamp;pressure;altitude;pressure_sealevel;temperature;humidity
16100;BME280;8154;50.830;12.082;2022-07-29T00:02:28;99495.66;;;27.87;24.32
16100;BME280;8154;50.830;12.082;2022-07-29T00:05:12;99496.66;;;27.86;24.28
16100;BME280;8154;50.830;12.082;2022-07-29T00:07:58;99490.47;;;27.86;24.39
16100;BME280;8154;50.830;12.082;2022-07-29T00:10:42;99487.19;;;27.84;24.36
16100;BME280;8154;50.830;12.082;2022-07-29T00:13:27;99489.88;;;27.84;24.33
16100;BME280;8154;50.830;12.082;2022-07-29T00:16:12;99488.00;;;27.84;24.29
16100;BME280;8154;50.830;12.082;2022-07-29T00:18:57;99488.00;;;27.84;24.49
16100;BME280;8154;50.830;12.082;2022-07-29T00:21:41;99488.00;;;27.84;24.51
16100;BME280;8154;50.830;12.082;2022-07-29T00:24:26;99471.28;;;27.82;24.34
16100;BME280;8154;50.830;12.082;2022-07-29T00:27:11;99476.44;;;27.84;24.42
16100;BME280;8154;50.830;12.082;2022-07-29T00:29:55;99469.66;;;27.81;24.31
16100;BME280;8154;50.830;12.082;2022-07-29T00:32:39;99465.69;;;27.84;24.33
16100;BME280;8154;50.830;12.082;2022-07-29T00:35:24;99467.56;;;27.83;24.53
16100;BME280;8154;50.830;12.082;2022-07-29T00:38:27;99463.00;;;27.84;24.50
16100;BME280;8154;50.830;12.082;2022-07-29T00:41:12;99462.41;;;27.82;24.40
16100;BME280;8154;50.830;12.082;2022-07-29T00:43:56;99460.53;;;27.82;24.39
16100;BME280;8154;50.830;12.082;2022-07-29T00:46:41;99457.25;;;27.80;24.54
16100;BME280;8154;50.830;12.082;2022-07-29T00:49:26;99468.00;;;27.80;24.51
16100;BME280;8154;50.830;12.082;2022-07-29T00:52:14;99469.66;;;27.81;24.53
16100;BME280;8154;50.830;12.082;2022-07-29T00:54:59;99459.72;;;27.82;24.59
16100;BME280;8154;50.830;12.082;2022-07-29T00:57:44;99462.06;;;27.78;24.66
16100;BME280;8154;50.830;12.082;2022-07-29T01:00:30;99457.25;;;27.80;24.67
16100;BME280;8154;50.830;12.082;2022-07-29T01:03:14;99464.28;;;27.81;24.64
16100;BME280;8154;50.830;12.082;2022-07-29T01:05:59;99459.38;;;27.78;24.99
16100;BME280;8154;50.830;12.082;2022-07-29T01:08:45;99456.47;;;27.80;24.89
16100;BME280;8154;50.830;12.082;2022-07-29T01:11:32;99447.56;;;27.79;24.90
16100;BME280;8154;50.830;12.082;2022-07-29T01:14:18;99456.47;;;27.80;24.98
16100;BME280;8154;50.830;12.082;2022-07-29T01:17:17;99452.34;;;27.77;25.15
16100;BME280;8154;50.830;12.082;2022-07-29T01:26:52;99450.03;;;27.81;24.81
16100;BME280;8154;50.830;12.082;2022-07-29T01:29:45;99447.19;;;27.76;24.88
16100;BME280;8154;50.830;12.082;2022-07-29T01:32:36;99431.69;;;27.78;24.82
16100;BME280;8154;50.830;12.082;2022-07-29T01:35:28;99443.69;;;27.75;24.97
16100;BME280;8154;50.830;12.082;2022-07-29T01:38:20;99432.97;;;27.75;24.72
16100;BME280;8154;50.830;12.082;2022-07-29T01:41:09;99429.44;;;27.75;24.87
16100;BME280;8154;50.830;12.082;2022-07-29T01:44:02;99440.19;;;27.75;24.87
16100;BME280;8154;50.830;12.082;2022-07-29T01:46:52;99425.94;;;27.74;24.98
16100;BME280;8154;50.830;12.082;2022-07-29T01:49:41;99423.47;;;27.73;25.01
16100;BME280;8154;50.830;12.082;2022-07-29T01:52:53;99424.91;;;27.75;24.96
16100;BME280;8154;50.830;12.082;2022-07-29T01:55:42;99416.25;;;27.73;25.16
16100;BME280;8154;50.830;12.082;2022-07-29T01:58:29;99420.78;;;27.73;25.22
16100;BME280;8154;50.830;12.082;2022-07-29T02:01:16;99418.31;;;27.71;25.25
16100;BME280;8154;50.830;12.082;2022-07-29T02:04:03;99421.22;;;27.70;25.16
16100;BME280;8154;50.830;12.082;2022-07-29T02:06:51;99414.22;;;27.69;25.23
16100;BME280;8154;50.830;12.082;2022-07-29T02:09:37;99413.16;;;27.70;25.32
16100;BME280;8154;50.830;12.082;2022-07-29T02:12:24;99410.25;;;27.71;25.37
16100;BME280;8154;50.830;12.082;2022-07-29T02:15:11;99411.94;;;27.72;25.38
16100;BME280;8154;50.830;12.082;2022-07-29T02:17:59;99402.66;;;27.68;25.40
16100;BME280;8154;50.830;12.082;2022-07-29T02:20:48;99404.28;;;27.69;25.45
16100;BME280;8154;50.830;12.082;2022-07-29T02:23:34;99402.19;;;27.71;25.58
16100;BME280;8154;50.830;12.082;2022-07-29T02:26:20;99403.03;;;27.72;25.54
16100;BME280;8154;50.830;12.082;2022-07-29T02:29:06;99406.78;;;27.71;25.63
16100;BME280;8154;50.830;12.082;2022-07-29T02:31:58;99401.59;;;27.69;25.48
16100;BME280;8154;50.830;12.082;2022-07-29T02:34:44;99405.13;;;27.70;25.48
16100;BME280;8154;50.830;12.082;2022-07-29T02:37:31;99405.34;;;27.68;25.61
16100;BME280;8154;50.830;12.082;2022-07-29T02:40:17;99407.19;;;27.68;25.58
16100;BME280;8154;50.830;12.082;2022-07-29T02:43:03;99413.41;;;27.68;25.58
16100;BME280;8154;50.830;12.082;2022-07-29T02:45:51;99407.19;;;27.68;25.66
16100;BME280;8154;50.830;12.082;2022-07-29T02:48:41;99409.66;;;27.69;25.54
16100;BME280;8154;50.830;12.082;2022-07-29T02:51:37;99403.47;;;27.69;25.76
16100;BME280;8154;50.830;12.082;2022-07-29T02:54:33;99408.84;;;27.69;25.63
16100;BME280;8154;50.830;12.082;2022-07-29T02:57:30;99399.13;;;27.68;25.61
16100;BME280;8154;50.830;12.082;2022-07-29T03:00:17;99392.97;;;27.67;25.80
16100;BME280;8154;50.830;12.082;2022-07-29T03:03:04;99384.91;;;27.67;25.67
16100;BME280;8154;50.830;12.082;2022-07-29T03:05:54;99395.66;;;27.67;25.79
16100;BME280;8154;50.830;12.082;2022-07-29T03:08:40;99397.72;;;27.65;25.98
16100;BME280;8154;50.830;12.082;2022-07-29T03:11:25;99394.44;;;27.63;26.20
16100;BME280;8154;50.830;12.082;2022-07-29T03:14:12;99400.19;;;27.67;26.06
16100;BME280;8154;50.830;12.082;2022-07-29T03:16:57;99392.38;;;27.65;26.23
16100;BME280;8154;50.830;12.082;2022-07-29T03:19:42;99390.72;;;27.64;26.10
16100;BME280;8154;50.830;12.082;2022-07-29T03:22:27;99386.59;;;27.62;26.24
16100;BME280;8154;50.830;12.082;2022-07-29T03:25:13;99393.03;;;27.61;26.08
16100;BME280;8154;50.830;12.082;2022-07-29T03:27:59;99399.00;;;27.63;26.30
16100;BME280;8154;50.830;12.082;2022-07-29T03:30:43;99401.09;;;27.61;26.38
16100;BME280;8154;50.830;12.082;2022-07-29T03:33:27;99407.88;;;27.63;26.24
16100;BME280;8154;50.830;12.082;2022-07-29T03:36:14;99408.31;;;27.60;26.63
16100;BME280;8154;50.830;12.082;2022-07-29T03:38:59;99411.00;;;27.60;26.58
16100;BME280;8154;50.830;12.082;2022-07-29T03:41:47;99411.44;;;27.57;26.49
16100;BME280;8154;50.830;12.082;2022-07-29T03:44:32;99407.34;;;27.55;26.52
16100;BME280;8154;50.830;12.082;2022-07-29T03:47:20;99402.81;;;27.55;26.49
16100;BME280;8154;50.830;12.082;2022-07-29T03:50:08;99409.22;;;27.54;26.53
16100;BME280;8154;50.830;12.082;2022-07-29T03:52:56;99415.19;;;27.56;26.73
16100;BME280;8154;50.830;12.082;2022-07-29T03:55:45;99423.03;;;27.58;26.61
16100;BME280;8154;50.830;12.082;2022-07-29T03:58:31;99424.44;;;27.60;26.68
16100;BME280;8154;50.830;12.082;2022-07-29T04:01:20;99425.94;;;27.56;26.92
16100;BME280;8154;50.830;12.082;2022-07-29T04:04:05;99433.75;;;27.58;27.05
16100;BME280;8154;50.830;12.082;2022-07-29T04:06:50;99434.66;;;27.52;27.20
16100;BME280;8154;50.830;12.082;2022-07-29T04:09:35;99427.50;;;27.46;27.21
16100;BME280;8154;50.830;12.082;2022-07-29T04:12:20;99426.06;;;27.43;27.40
16100;BME280;8154;50.830;12.082;2022-07-29T04:15:05;99422.41;;;27.38;27.55
16100;BME280;8154;50.830;12.082;2022-07-29T04:17:50;99429.03;;;27.35;27.48
16100;BME280;8154;50.830;12.082;2022-07-29T04:20:40;99431.56;;;27.30;27.86
16100;BME280;8154;50.830;12.082;2022-07-29T04:23:29;99438.56;;;27.31;27.78
16100;BME280;8154;50.830;12.082;2022-07-29T04:26:24;99441.69;;;27.28;27.99
16100;BME280;8154;50.830;12.082;2022-07-29T04:29:09;99445.84;;;27.24;27.87
16100;BME280;8154;50.830;12.082;2022-07-29T04:31:56;99440.06;;;27.20;28.13
16100;BME280;8154;50.830;12.082;2022-07-29T04:34:40;99444.16;;;27.23;28.30
16100;BME280;8154;50.830;12.082;2022-07-29T04:37:25;99432.47;;;27.17;28.28
16100;BME280;8154;50.830;12.082;2022-07-29T04:40:10;99436.22;;;27.16;28.29
16100;BME280;8154;50.830;12.082;2022-07-29T04:42:54;99427.94;;;27.18;28.13
16100;BME280;8154;50.830;12.082;2022-07-29T04:45:39;99426.28;;;27.17;28.31
16100;BME280;8154;50.830;12.082;2022-07-29T04:48:24;99433.13;;;27.13;28.41
16100;BME280;8154;50.830;12.082;2022-07-29T04:51:10;99433.75;;;27.15;28.26
16100;BME280;8154;50.830;12.082;2022-07-29T04:53:56;99435.81;;;27.13;28.58
16100;BME280;8154;50.830;12.082;2022-07-29T04:56:40;99433.75;;;27.15;28.45
16100;BME280;8154;50.830;12.082;2022-07-29T04:59:26;99421.34;;;27.14;28.38
16100;BME280;8154;50.830;12.082;2022-07-29T05:02:11;99434.16;;;27.12;28.60
16100;BME280;8154;50.830;12.082;2022-07-29T05:04:56;99435.59;;;27.14;28.51
16100;BME280;8154;50.830;12.082;2022-07-29T05:07:41;99438.50;;;27.13;28.55
16100;BME280;8154;50.830;12.082;2022-07-29T05:10:25;99437.06;;;27.10;28.56
16100;BME280;8154;50.830;12.082;2022-07-29T05:13:10;99434.16;;;27.12;28.59
16100;BME280;8154;50.830;12.082;2022-07-29T05:15:56;99434.38;;;27.10;28.47
16100;BME280;8154;50.830;12.082;2022-07-29T05:18:46;99434.97;;;27.12;28.36
16100;BME280;8154;50.830;12.082;2022-07-29T05:21:31;99426.72;;;27.14;28.61
16100;BME280;8154;50.830;12.082;2022-07-29T05:24:17;99428.38;;;27.15;28.53
16100;BME280;8154;50.830;12.082;2022-07-29T05:27:02;99430.84;;;27.16;28.34
16100;BME280;8154;50.830;12.082;2022-07-29T05:29:46;99423.00;;;27.15;28.22
16100;BME280;8154;50.830;12.082;2022-07-29T05:32:30;99422.19;;;27.14;28.20
16100;BME280;8154;50.830;12.082;2022-07-29T05:35:17;99423.38;;;27.18;28.32
16100;BME280;8154;50.830;12.082;2022-07-29T05:38:02;99414.28;;;27.19;28.05
16100;BME280;8154;50.830;12.082;2022-07-29T05:40:46;99417.34;;;27.23;27.72
16100;BME280;8154;50.830;12.082;2022-07-29T05:43:32;99419.81;;;27.24;27.86
16100;BME280;8154;50.830;12.082;2022-07-29T05:46:17;99410.53;;;27.27;27.73
16100;BME280;8154;50.830;12.082;2022-07-29T05:49:02;99423.97;;;27.27;27.92
16100;BME280;8154;50.830;12.082;2022-07-29T05:51:47;99424.19;;;27.25;27.78
16100;BME280;8154;50.830;12.082;2022-07-29T05:54:33;99418.38;;;27.22;28.04
16100;BME280;8154;50.830;12.082;2022-07-29T05:57:20;99415.94;;;27.20;28.00
16100;BME280;8154;50.830;12.082;2022-07-29T06:00:05;99420.91;;;27.17;28.17
16100;BME280;8154;50.830;12.082;2022-07-29T06:02:50;99416.22;;;27.12;28.09
16100;BME280;8154;50.830;12.082;2022-07-29T06:05:35;99426.50;;;27.15;28.05
16100;BME280;8154;50.830;12.082;2022-07-29T06:08:19;99431.25;;;27.13;28.29
16100;BME280;8154;50.830;12.082;2022-07-29T06:11:08;99427.78;;;27.13;28.39
16100;BME280;8154;50.830;12.082;2022-07-29T06:13:58;99427.16;;;27.11;28.33
16100;BME280;8154;50.830;12.082;2022-07-29T06:16:43;99432.53;;;27.11;28.37
16100;BME280;8154;50.830;12.082;2022-07-29T06:19:28;99422.00;;;27.09;28.50
16100;BME280;8154;50.830;12.082;2022-07-29T06:22:15;99431.91;;;27.09;28.35
16100;BME280;8154;50.830;12.082;2022-07-29T06:25:02;99430.06;;;27.09;28.42
16100;BME280;8154;50.830;12.082;2022-07-29T06:27:47;99435.22;;;27.11;28.25
16100;BME280;8154;50.830;12.082;2022-07-29T06:30:33;99434.97;;;27.12;28.10
16100;BME280;8154;50.830;12.082;2022-07-29T06:33:18;99432.09;;;27.14;28.08
16100;BME280;8154;50.830;12.082;2022-07-29T06:36:06;99427.53;;;27.14;28.01
16100;BME280;8154;50.830;12.082;2022-07-29T06:38:51;99435.31;;;27.22;27.90
16100;BME280;8154;50.830;12.082;2022-07-29T06:41:37;99437.59;;;27.25;27.85
16100;BME280;8154;50.830;12.082;2022-07-29T06:44:22;99428.69;;;27.25;27.75
16100;BME280;8154;50.830;12.082;2022-07-29T06:47:07;99434.06;;;27.25;27.76
16100;BME280;8154;50.830;12.082;2022-07-29T06:49:51;99439.22;;;27.26;27.72
16100;BME280;8154;50.830;12.082;2022-07-29T06:52:36;99431.78;;;27.28;27.92
16100;BME280;8154;50.830;12.082;2022-07-29T06:55:21;99433.81;;;27.33;27.74
16100;BME280;8154;50.830;12.082;2022-07-29T06:58:07;99437.72;;;27.30;28.00
16100;BME280;8154;50.830;12.082;2022-07-29T07:00:53;99431.94;;;27.33;28.02
16100;BME280;8154;50.830;12.082;2022-07-29T07:03:37;99430.50;;;27.31;28.05
16100;BME280;8154;50.830;12.082;2022-07-29T07:06:22;99434.06;;;27.25;28.14
16100;BME280;8154;50.830;12.082;2022-07-29T07:09:06;99435.75;;;27.19;28.18
16100;BME280;8154;50.830;12.082;2022-07-29T07:11:51;99425.69;;;27.15;28.25
16100;BME280;8154;50.830;12.082;2022-07-29T07:14:36;99433.75;;;27.15;28.20
16100;BME280;8154;50.830;12.082;2022-07-29T07:17:21;99443.19;;;27.17;28.24
16100;BME280;8154;50.830;12.082;2022-07-29T07:20:07;99445.72;;;27.12;28.26
16100;BME280;8154;50.830;12.082;2022-07-29T07:22:52;99434.75;;;27.14;28.35
16100;BME280;8154;50.830;12.082;2022-07-29T07:25:37;99435.44;;;27.09;28.57
16100;BME280;8154;50.830;12.082;2022-07-29T07:28:22;99436.69;;;27.07;28.64
16100;BME280;8154;50.830;12.082;2022-07-29T07:31:11;99430.28;;;27.08;28.63
16100;BME280;8154;50.830;12.082;2022-07-29T07:33:56;99427.59;;;27.08;28.66
16100;BME280;8154;50.830;12.082;2022-07-29T07:36:42;99426.31;;;27.10;28.59
16100;BME280;8154;50.830;12.082;2022-07-29T07:39:27;99418.88;;;27.12;28.54
16100;BME280;8154;50.830;12.082;2022-07-29T07:42:13;99413.91;;;27.16;28.59
16100;BME280;8154;50.830;12.082;2022-07-29T07:44:58;99412.28;;;27.15;28.60
16100;BME280;8154;50.830;12.082;2022-07-29T07:47:43;99420.31;;;27.15;28.59
16100;BME280;8154;50.830;12.082;2022-07-29T07:50:28;99412.69;;;27.12;28.96
16100;BME280;8154;50.830;12.082;2022-07-29T07:53:15;99412.13;;;27.10;28.86
16100;BME280;8154;50.830;12.082;2022-07-29T07:56:00;99421.41;;;27.07;28.95
16100;BME280;8154;50.830;12.082;2022-07-29T07:58:46;99421.19;;;27.09;29.12
16100;BME280;8154;50.830;12.082;2022-07-29T08:01:31;99420.16;;;27.10;29.07
16100;BME280;8154;50.830;12.082;2022-07-29T08:04:15;99420.97;;;27.10;29.25
16100;BME280;8154;50.830;12.082;2022-07-29T08:07:01;99416.44;;;27.11;29.17
16100;BME280;8154;50.830;12.082;2022-07-29T08:09:46;99407.94;;;27.14;29.24
16100;BME280;8154;50.830;12.082;2022-07-29T08:12:34;99411.00;;;27.17;29.19
16100;BME280;8154;50.830;12.082;2022-07-29T08:15:19;99399.81;;;27.20;29.12
16100;BME280;8154;50.830;12.082;2022-07-29T08:18:04;99402.72;;;27.25;29.00
16100;BME280;8154;50.830;12.082;2022-07-29T08:20:49;99400.03;;;27.25;28.95
16100;BME280;8154;50.830;12.082;2022-07-29T08:23:34;99402.91;;;27.24;29.14
16100;BME280;8154;50.830;12.082;2022-07-29T08:26:29;99398.34;;;27.24;29.10
16100;BME280;8154;50.830;12.082;2022-07-29T08:29:14;99391.13;;;27.25;29.15
16100;BME280;8154;50.830;12.082;2022-07-29T08:32:00;99386.38;;;27.27;29.18
16100;BME280;8154;50.830;12.082;2022-07-29T08:34:44;99390.09;;;27.26;29.17
16100;BME280;8154;50.830;12.082;2022-07-29T08:37:30;99393.16;;;27.29;29.07
16100;BME280;8154;50.830;12.082;2022-07-29T08:40:16;99396.28;;;27.26;29.40
16100;BME280;8154;50.830;12.082;2022-07-29T08:43:07;99400.03;;;27.25;29.24
16100;BME280;8154;50.830;12.082;2022-07-29T08:45:52;99393.59;;;27.26;29.07
16100;BME280;8154;50.830;12.082;2022-07-29T08:48:37;99399.59;;;27.28;29.23
16100;BME280;8154;50.830;12.082;2022-07-29T08:51:27;99395.47;;;27.26;29.25
16100;BME280;8154;50.830;12.082;2022-07-29T08:54:16;99400.81;;;27.26;29.36
16100;BME280;8154;50.830;12.082;2022-07-29T08:57:02;99397.13;;;27.27;29.49
16100;BME280;8154;50.830;12.082;2022-07-29T08:59:47;99396.91;;;27.28;29.34
16100;BME280;8154;50.830;12.082;2022-07-29T09:02:47;99395.66;;;27.24;29.42
16100;BME280;8154;50.830;12.082;2022-07-29T09:05:36;99390.72;;;27.21;29.56
16100;BME280;8154;50.830;12.082;2022-07-29T09:08:24;99392.00;;;27.19;29.34
16100;BME280;8154;50.830;12.082;2022-07-29T09:11:08;99391.78;;;27.20;29.45
16100;BME280;8154;50.830;12.082;2022-07-29T09:13:55;99386.41;;;27.20;29.64
16100;BME280;8154;50.830;12.082;2022-07-29T09:16:53;99388.88;;;27.22;29.53
16100;BME280;8154;50.830;12.082;2022-07-29T09:19:38;99384.72;;;27.26;29.38
16100;BME280;8154;50.830;12.082;2022-07-29T09:22:30;99383.50;;;27.22;29.39
16100;BME280;8154;50.830;12.082;2022-07-29T09:25:36;99384.56;;;27.21;29.41
16100;BME280;8154;50.830;12.082;2022-07-29T09:28:22;99382.09;;;27.19;29.42
16100;BME280;8154;50.830;12.082;2022-07-29T09:31:08;99379.41;;;27.19;29.28
16100;BME280;8154;50.830;12.082;2022-07-29T09:33:58;99374.28;;;27.18;29.38
16100;BME280;8154;50.830;12.082;2022-07-29T09:36:47;99375.91;;;27.19;29.44
16100;BME280;8154;50.830;12.082;2022-07-29T09:39:38;99367.91;;;27.12;29.26
16100;BME280;8154;50.830;12.082;2022-07-29T09:42:32;99378.88;;;27.11;29.38
16100;BME280;8154;50.830;12.082;2022-07-29T09:45:29;99367.09;;;27.12;29.41
16100;BME280;8154;50.830;12.082;2022-07-29T09:48:19;99368.75;;;27.13;29.21
16100;BME280;8154;50.830;12.082;2022-07-29T09:51:04;99366.22;;;27.18;29.17
16100;BME280;8154;50.830;12.082;2022-07-29T09:53:51;99362.47;;;27.19;29.21
16100;BME280;8154;50.830;12.082;2022-07-29T09:56:42;99362.53;;;27.12;29.28
16100;BME280;8154;50.830;12.082;2022-07-29T09:59:27;99363.53;;;27.18;29.17
16100;BME280;8154;50.830;12.082;2022-07-29T10:02:14;99359.41;;;27.15;29.35
16100;BME280;8154;50.830;12.082;2022-07-29T10:05:01;99357.13;;;27.19;29.54
16100;BME280;8154;50.830;12.082;2022-07-29T10:07:52;99344.88;;;27.23;29.00
16100;BME280;8154;50.830;12.082;2022-07-29T10:10:39;99344.47;;;27.26;29.09
16100;BME280;8154;50.830;12.082;2022-07-29T10:13:26;99344.66;;;27.24;29.00
16100;BME280;8154;50.830;12.082;2022-07-29T10:16:12;99339.75;;;27.21;29.07
16100;BME280;8154;50.830;12.082;2022-07-29T10:18:58;99342.66;;;27.20;29.16
16100;BME280;8154;50.830;12.082;2022-07-29T10:21:44;99347.00;;;27.21;29.28
16100;BME280;8154;50.830;12.082;2022-07-29T10:24:30;99345.72;;;27.23;29.06
16100;BME280;8154;50.830;12.082;2022-07-29T10:27:15;99339.97;;;27.20;28.92
16100;BME280;8154;50.830;12.082;2022-07-29T10:29:59;99341.25;;;27.17;29.22
16100;BME280;8154;50.830;12.082;2022-07-29T10:36:59;99339.16;;;27.19;29.23
16100;BME280;8154;50.830;12.082;2022-07-29T10:42:23;99325.53;;;27.21;29.28
16100;BME280;8154;50.830;12.082;2022-07-29T10:45:08;99319.34;;;27.20;29.32
16100;BME280;8154;50.830;12.082;2022-07-29T10:48:04;99313.13;;;27.20;29.46
16100;BME280;8154;50.830;12.082;2022-07-29T10:51:03;99312.34;;;27.19;29.59
16100;BME280;8154;50.830;12.082;2022-07-29T10:53:50;99309.44;;;27.21;29.63
16100;BME280;8154;50.830;12.082;2022-07-29T10:56:37;99310.22;;;27.21;29.73
16100;BME280;8154;50.830;12.082;2022-07-29T10:59:23;99310.00;;;27.23;29.60
16100;BME280;8154;50.830;12.082;2022-07-29T11:05:19;99303.84;;;27.22;29.91
16100;BME280;8154;50.830;12.082;2022-07-29T11:14:13;99295.16;;;27.27;30.09
16100;BME280;8154;50.830;12.082;2022-07-29T11:17:04;99289.16;;;27.25;30.13
16100;BME280;8154;50.830;12.082;2022-07-29T11:19:50;99293.25;;;27.27;30.18
16100;BME280;8154;50.830;12.082;2022-07-29T11:22:36;99300.75;;;27.25;30.25
16100;BME280;8154;50.830;12.082;2022-07-29T11:25:21;99291.00;;;27.24;30.33
16100;BME280;8154;50.830;12.082;2022-07-29T11:28:17;99291.00;;;27.24;30.43
16100;BME280;8154;50.830;12.082;2022-07-29T11:31:03;99282.75;;;27.26;30.35
16100;BME280;8154;50.830;12.082;2022-07-29T11:33:49;99266.84;;;27.24;30.34
16100;BME280;8154;50.830;12.082;2022-07-29T11:36:34;99276.38;;;27.27;30.44
16100;BME280;8154;50.830;12.082;2022-07-29T11:39:26;99275.72;;;27.25;30.57
16100;BME280;8154;50.830;12.082;2022-07-29T11:47:58;99264.38;;;27.23;30.81
16100;BME280;8154;50.830;12.082;2022-07-29T11:50:44;99271.00;;;27.27;30.77
16100;BME280;8154;50.830;12.082;2022-07-29T11:53:29;99273.00;;;27.31;30.66
16100;BME280;8154;50.830;12.082;2022-07-29T11:56:20;99269.50;;;27.31;30.67
16100;BME280;8154;50.830;12.082;2022-07-29T11:59:07;99267.25;;;27.28;30.67
16100;BME280;8154;50.830;12.082;2022-07-29T12:01:59;99264.34;;;27.29;30.94
16100;BME280;8154;50.830;12.082;2022-07-29T12:07:39;99256.13;;;27.24;30.75
16100;BME280;8154;50.830;12.082;2022-07-29T12:10:30;99250.94;;;27.29;30.87
16100;BME280;8154;50.830;12.082;2022-07-29T12:13:17;99247.88;;;27.26;31.07
16100;BME280;8154;50.830;12.082;2022-07-29T12:16:03;99251.16;;;27.28;30.86
16100;BME280;8154;50.830;12.082;2022-07-29T12:18:59;99244.16;;;27.27;30.94
16100;BME280;8154;50.830;12.082;2022-07-29T12:21:49;99249.66;;;27.32;30.95
16100;BME280;8154;50.830;12.082;2022-07-29T12:24:44;99234.97;;;27.34;30.96
16100;BME280;8154;50.830;12.082;2022-07-29T12:27:30;99236.47;;;27.30;30.90
16100;BME280;8154;50.830;12.082;2022-07-29T12:30:19;99242.66;;;27.31;31.00
16100;BME280;8154;50.830;12.082;2022-07-29T12:33:13;99242.06;;;27.29;30.90
16100;BME280;8154;50.830;12.082;2022-07-29T12:36:00;99243.25;;;27.33;30.98
16100;BME280;8154;50.830;12.082;2022-07-29T12:38:48;99237.28;;;27.31;30.99
16100;BME280;8154;50.830;12.082;2022-07-29T12:41:35;99241.47;;;27.27;31.03
16100;BME280;8154;50.830;12.082;2022-07-29T12:44:20;99235.88;;;27.28;31.18
16100;BME280;8154;50.830;12.082;2022-07-29T12:47:06;99235.66;;;27.30;30.99
16100;BME280;8154;50.830;12.082;2022-07-29T12:50:08;99238.91;;;27.32;31.01
16100;BME280;8154;50.830;12.082;2022-07-29T12:53:12;99233.34;;;27.33;30.94
16100;BME280;8154;50.830;12.082;2022-07-29T12:56:03;99234.38;;;27.32;30.96
16100;BME280;8154;50.830;12.082;2022-07-29T12:58:50;99243.25;;;27.33;31.03
16100;BME280;8154;50.830;12.082;2022-07-29T13:01:37;99241.75;;;27.37;30.95
16100;BME280;8154;50.830;12.082;2022-07-29T13:04:32;99250.03;;;27.35;30.95
16100;BME280;8154;50.830;12.082;2022-07-29T13:07:29;99250.84;;;27.36;31.06
16100;BME280;8154;50.830;12.082;2022-07-29T13:10:21;99248.91;;;27.43;30.84
16100;BME280;8154;50.830;12.082;2022-07-29T13:16:06;99254.19;;;27.50;30.95
16100;BME280;8154;50.830;12.082;2022-07-29T13:19:11;99247.88;;;27.44;30.84
16100;BME280;8154;50.830;12.082;2022-07-29T13:21:56;99252.19;;;27.45;30.93
16100;BME280;8154;50.830;12.082;2022-07-29T13:24:56;99249.72;;;27.44;30.89
16100;BME280;8154;50.830;12.082;2022-07-29T13:27:43;99254.03;;;27.45;30.89
16100;BME280;8154;50.830;12.082;2022-07-29T13:30:29;99261.13;;;27.39;30.94
16100;BME280;8154;50.830;12.082;2022-07-29T13:33:15;99281.44;;;27.35;31.34
16100;BME280;8154;50.830;12.082;2022-07-29T13:35:59;99282.47;;;27.34;31.84
16100;BME280;8154;50.830;12.082;2022-07-29T13:38:44;99280.59;;;27.34;33.15
16100;BME280;8154;50.830;12.082;2022-07-29T13:41:29;99285.00;;;27.47;34.00
16100;BME280;8154;50.830;12.082;2022-07-29T13:44:13;99289.91;;;27.50;34.06
16100;BME280;8154;50.830;12.082;2022-07-29T13:46:58;99286.47;;;27.43;34.38
16100;BME280;8154;50.830;12.082;2022-07-29T13:49:43;99284.47;;;27.38;34.81
16100;BME280;8154;50.830;12.082;2022-07-29T13:52:29;99281.44;;;27.35;35.28
16100;BME280;8154;50.830;12.082;2022-07-29T13:55:14;99284.13;;;27.35;36.74
16100;BME280;8154;50.830;12.082;2022-07-29T13:57:59;99290.66;;;27.39;36.03
16100;BME280;8154;50.830;12.082;2022-07-29T14:00:44;99298.19;;;27.49;36.08
16100;BME280;8154;50.830;12.082;2022-07-29T14:03:31;99300.56;;;27.57;36.13
16100;BME280;8154;50.830;12.082;2022-07-29T14:06:16;99301.28;;;27.64;36.19
16100;BME280;8154;50.830;12.082;2022-07-29T14:09:01;99294.06;;;27.64;36.90
16100;BME280;8154;50.830;12.082;2022-07-29T14:11:46;99284.34;;;27.63;36.80
16100;BME280;8154;50.830;12.082;2022-07-29T14:14:40;99277.13;;;27.64;37.12
16100;BME280;8154;50.830;12.082;2022-07-29T14:17:40;99283.34;;;27.64;37.21
16100;BME280;8154;50.830;12.082;2022-07-29T14:20:30;99272.13;;;27.67;37.84
16100;BME280;8154;50.830;12.082;2022-07-29T14:23:15;99272.38;;;27.66;37.76
16100;BME280;8154;50.830;12.082;2022-07-29T14:26:00;99265.22;;;27.60;37.74
16100;BME280;8154;50.830;12.082;2022-07-29T14:28:45;99257.41;;;27.58;37.57
16100;BME280;8154;50.830;12.082;2022-07-29T14:31:30;99256.25;;;27.66;37.79
16100;BME280;8154;50.830;12.082;2022-07-29T14:34:14;99265.09;;;27.66;38.07
16100;BME280;8154;50.830;12.082;2022-07-29T14:37:00;99265.09;;;27.66;38.50
16100;BME280;8154;50.830;12.082;2022-07-29T14:39:47;99262.41;;;27.66;38.50
16100;BME280;8154;50.830;12.082;2022-07-29T14:42:32;99273.50;;;27.58;38.15
16100;BME280;8154;50.830;12.082;2022-07-29T14:45:17;99276.03;;;27.53;38.52
16100;BME280;8154;50.830;12.082;2022-07-29T14:48:03;99283.94;;;27.48;38.73
16100;BME280;8154;50.830;12.082;2022-07-29T14:50:48;99282.22;;;27.54;39.15
16100;BME280;8154;50.830;12.082;2022-07-29T14:53:33;99291.00;;;27.61;39.13
16100;BME280;8154;50.830;12.082;2022-07-29T14:56:19;99280.28;;;27.61;39.18
16100;BME280;8154;50.830;12.082;2022-07-29T14:59:06;99281.09;;;27.61;38.92
16100;BME280;8154;50.830;12.082;2022-07-29T15:01:51;99286.56;;;27.55;39.04
16100;BME280;8154;50.830;12.082;2022-07-29T15:04:37;99297.97;;;27.50;39.51
16100;BME280;8154;50.830;12.082;2022-07-29T15:07:22;99296.69;;;27.53;39.08
16100;BME280;8154;50.830;12.082;2022-07-29T15:10:07;99300.28;;;27.47;39.10
16100;BME280;8154;50.830;12.082;2022-07-29T15:12:55;99301.31;;;27.46;38.98
16100;BME280;8154;50.830;12.082;2022-07-29T15:15:40;99294.81;;;27.53;38.96
16100;BME280;8154;50.830;12.082;2022-07-29T15:18:26;99289.53;;;27.47;38.94
16100;BME280;8154;50.830;12.082;2022-07-29T15:21:11;99281.72;;;27.45;38.72